Main page
METAR-TAF:

METAR-TAF

Airports :

Sri Guru Ram Dass Jee International Airport

Amritsar, India

latitude: 31-38N, longitude: 074-52E, elevation: 229 m

Current weather observation

The report was made 21 minutes ago, at 19:00 UTC
Calm wind
Temperature 31°C
Humidity 52%
Pressure 999 hPa
Visibility: 4000 m
haze

METAR: VIAR 251900Z 00000KT 4000 HZ NSC 31/20 Q0999 NOSIG

Time: 00:51 (19:21 UTC)

Forecast

The report was made 2 hours and 21 minutes ago, at 17:00 UTC
Forecast valid from 25 at 18 UTC to 26 at 24 UTC
Wind kt from the North
Visibility: 4000 m
haze
Becoming
from 26 at 00 UTC to 26 at 02 UTC
Visibility: 3000 m
haze
Becoming
from 26 at 04 UTC to 26 at 06 UTC
Wind 6 kt from the Southeast
Visibility: 5000 m
haze
Becoming
from 26 at 16 UTC to 26 at 18 UTC
Wind 2 kt from variable directions
Visibility: 4000 m
haze

TAF: VIAR 251700Z 2518/2624 00000KT 4000 HZ NSC BECMG 2600/2602 3000 HZ BECMG 2604/2606 14006KT 5000 HZ BECMG 2616/2618 VRB02KT 4000 HZ

Weather observations and forecasts of more than 4000 airports (METAR and TAF reports).

The available stations are represented by yellow and red dots on the map.

Hover mouse over dot to see the name of the station.

Then click to see weather observations and forecasts.

To change the map : click on the green buttons with a black cross to zoom in, on the green button with a dash to zoom out, or on the green arrows for adjacent maps.


METAR-TAF: